Time;durP1;ratioP1;P1;durP2;ratioP2;P2;SDS_P1;SDS_P2;PMS_P1;PMS_P2;Temp;Humidity;BMP_temperature;BMP_pressure;BME280_temperature;BME280_humidity;BME280_pressure;Samples;Min_cycle;Max_cycle;Signal;HPM_P1;HPM_P2
2021/12/15 00:01:19;;;;;;;41.20;20.70;;;;;;;26.30;17.33;99184.16;5018223;28;20034;-80
2021/12/15 00:03:45;;;;;;;44.75;21.10;;;;;;;26.18;17.23;99179.06;5017216;28;20041;-79
2021/12/15 00:06:17;;;;;;;45.08;21.60;;;;;;;26.35;16.73;99189.31;5018606;28;20110;-80
2021/12/15 00:08:46;;;;;;;47.70;23.25;;;;;;;25.50;17.82;99178.25;5015195;28;20033;-80
2021/12/15 00:11:14;;;;;;;39.40;20.15;;;;;;;25.50;17.73;99181.84;5028078;28;20130;-80
2021/12/15 00:13:41;;;;;;;36.30;19.15;;;;;;;25.50;17.59;99175.41;5021323;28;20073;-80
2021/12/15 00:16:10;;;;;;;46.33;21.27;;;;;;;25.90;17.49;99177.38;5021015;28;20029;-79
2021/12/15 00:18:41;;;;;;;36.55;19.17;;;;;;;26.02;17.24;99174.81;5020510;28;20034;-80
2021/12/15 00:21:09;;;;;;;39.40;19.33;;;;;;;25.63;17.55;99182.09;5019942;28;20033;-80
2021/12/15 00:23:37;;;;;;;35.40;18.70;;;;;;;25.32;18.23;99179.16;5019715;28;20503;-80
2021/12/15 00:26:03;;;;;;;28.67;15.80;;;;;;;25.74;17.73;99185.63;5031013;28;20033;-80
2021/12/15 00:28:30;;;;;;;34.55;16.42;;;;;;;26.13;17.35;99179.53;5031503;28;20434;-80
2021/12/15 00:30:56;;;;;;;33.70;16.65;;;;;;;26.40;17.17;99177.56;5025425;28;20025;-80
2021/12/15 00:33:22;;;;;;;29.85;15.05;;;;;;;26.61;17.33;99191.34;5021983;28;20034;-79
2021/12/15 00:35:49;;;;;;;32.55;17.38;;;;;;;26.49;16.94;99186.31;5030562;28;20033;-80
2021/12/15 00:38:15;;;;;;;38.75;18.85;;;;;;;26.00;17.20;99190.50;5023141;28;20025;-80
2021/12/15 00:40:42;;;;;;;34.30;17.98;;;;;;;25.84;17.65;99184.69;5013359;28;20066;-80
2021/12/15 00:43:08;;;;;;;41.45;18.08;;;;;;;25.82;17.60;99185.09;5027243;28;20101;-80
2021/12/15 00:45:35;;;;;;;38.20;18.10;;;;;;;26.08;17.14;99190.03;5026489;28;20046;-80
2021/12/15 00:48:01;;;;;;;34.53;17.13;;;;;;;25.96;17.63;99193.38;5033577;28;20033;-80
2021/12/15 00:50:32;;;;;;;37.03;16.67;;;;;;;25.84;18.00;99201.56;5022456;28;20033;-80
2021/12/15 00:52:59;;;;;;;29.90;14.65;;;;;;;25.81;17.94;99194.75;5029180;28;20489;-80
2021/12/15 00:55:27;;;;;;;37.63;19.58;;;;;;;25.92;18.04;99203.91;5024437;28;20029;-80
2021/12/15 00:57:53;;;;;;;38.08;18.88;;;;;;;26.06;17.68;99203.72;5022029;28;20043;-80
2021/12/15 01:00:26;;;;;;;38.05;18.67;;;;;;;26.08;17.80;99195.66;5033574;28;20025;-80
2021/12/15 01:02:53;;;;;;;35.30;16.88;;;;;;;25.80;18.06;99198.00;5032134;28;20046;-80
2021/12/15 01:05:22;;;;;;;30.27;16.17;;;;;;;25.99;17.68;99200.19;5017550;28;20030;-80
2021/12/15 01:07:50;;;;;;;32.58;16.13;;;;;;;25.96;17.74;99201.03;5036045;28;20040;-80
2021/12/15 01:10:23;;;;;;;33.78;15.95;;;;;;;25.78;17.61;99200.44;5035244;28;20477;-80
2021/12/15 01:21:08;;;;;;;42.60;19.80;;;;;;;25.80;18.07;99203.63;5030249;28;20037;-80
2021/12/15 01:23:34;;;;;;;39.63;18.13;;;;;;;25.62;18.44;99200.22;5019622;28;20073;-80
2021/12/15 01:26:08;;;;;;;40.42;19.77;;;;;;;25.73;18.04;99198.88;5034064;28;20021;-80
2021/12/15 01:28:34;;;;;;;42.25;20.80;;;;;;;25.89;17.97;99201.91;5031062;28;20091;-78
2021/12/15 01:31:04;;;;;;;40.25;18.95;;;;;;;25.89;18.09;99201.09;5034449;28;20057;-80
2021/12/15 01:33:31;;;;;;;39.75;18.50;;;;;;;25.97;17.87;99194.19;5043858;28;20480;-79
2021/12/15 01:36:00;;;;;;;39.03;18.05;;;;;;;25.77;18.05;99193.19;5023691;28;20370;-80
2021/12/15 01:38:29;;;;;;;42.05;18.90;;;;;;;25.55;18.61;99197.47;5034163;28;20124;-79
2021/12/15 01:40:56;;;;;;;36.92;18.15;;;;;;;25.49;18.67;99207.56;5029760;28;20436;-80
2021/12/15 01:43:49;;;;;;;32.95;17.02;;;;;;;25.48;18.63;99200.34;5032462;28;20072;-80
2021/12/15 01:49:30;;;;;;;37.63;18.30;;;;;;;25.39;18.28;99201.59;5026720;28;20064;-79
2021/12/15 01:51:59;;;;;;;35.90;15.80;;;;;;;24.91;18.74;99195.19;5027658;28;20034;-80
2021/12/15 01:54:28;;;;;;;29.73;13.80;;;;;;;25.07;18.71;99203.09;5033587;28;20052;-79
2021/12/15 01:56:55;;;;;;;34.80;16.40;;;;;;;25.29;18.67;99196.09;5028406;28;20661;-79
2021/12/15 01:59:24;;;;;;;34.28;15.18;;;;;;;25.66;18.35;99195.34;5031681;28;20041;-79
2021/12/15 02:01:50;;;;;;;40.30;17.17;;;;;;;25.30;18.87;99194.84;5031577;28;20047;-79
2021/12/15 02:04:18;;;;;;;32.47;17.83;;;;;;;25.25;18.94;99190.47;5028664;28;20037;-80
2021/12/15 02:06:45;;;;;;;33.50;15.52;;;;;;;25.54;18.45;99193.06;5033721;28;20029;-80
2021/12/15 02:09:15;;;;;;;35.78;15.45;;;;;;;25.75;18.30;99181.56;5028599;28;20017;-80
2021/12/15 02:11:41;;;;;;;33.73;16.70;;;;;;;25.67;18.42;99177.25;5026910;28;20482;-80
2021/12/15 02:14:08;;;;;;;30.80;14.85;;;;;;;25.81;18.59;99188.34;5032774;28;20779;-80
2021/12/15 02:16:34;;;;;;;36.80;17.23;;;;;;;25.62;18.78;99189.78;5026316;28;20392;-80
2021/12/15 02:19:00;;;;;;;43.25;18.75;;;;;;;25.32;19.03;99190.41;5032509;28;20080;-80
2021/12/15 02:21:27;;;;;;;39.30;17.98;;;;;;;24.83;19.56;99185.25;5022939;28;20034;-80
2021/12/15 02:23:57;;;;;;;38.58;18.08;;;;;;;24.60;19.83;99184.94;5032709;28;20049;-80
2021/12/15 02:26:35;;;;;;;39.00;18.80;;;;;;;24.23;20.38;99199.59;5025335;28;20038;-80
2021/12/15 02:29:03;;;;;;;40.60;18.95;;;;;;;24.08;20.58;99198.06;5030871;28;20025;-80
2021/12/15 02:31:53;;;;;;;35.30;17.58;;;;;;;24.20;20.43;99196.81;5031472;28;20500;-81
2021/12/15 02:39:44;;;;;;;34.20;15.48;;;;;;;25.40;19.22;99211.63;5031760;28;20041;-81
2021/12/15 02:42:10;;;;;;;34.80;16.98;;;;;;;25.04;19.66;99207.53;5027935;28;20029;-80
2021/12/15 02:44:41;;;;;;;33.80;15.77;;;;;;;25.23;19.26;99209.78;5031629;28;20103;-80
2021/12/15 02:47:07;;;;;;;;;;;;;;;25.15;19.21;99213.06;5033698;28;20026;-80
2021/12/15 02:49:33;;;;;;;34.30;15.52;;;;;;;25.07;19.47;99209.50;5032504;28;19921;-80
2021/12/15 02:52:00;;;;;;;39.22;17.00;;;;;;;25.21;19.33;99200.16;5022922;28;20065;-81
2021/12/15 02:54:27;;;;;;;32.65;14.77;;;;;;;25.47;18.94;99202.38;5030321;28;20506;-80
2021/12/15 02:56:55;;;;;;;34.55;16.23;;;;;;;25.68;18.75;99204.16;5027684;28;20038;-81
2021/12/15 02:59:31;;;;;;;33.50;15.77;;;;;;;25.75;18.49;99210.50;5029854;28;20029;-81
2021/12/15 03:05:04;;;;;;;33.88;15.23;;;;;;;25.94;18.64;99221.16;5041079;28;20049;-80
2021/12/15 03:15:37;;;;;;;31.85;13.95;;;;;;;25.75;18.90;99237.84;5029768;28;20044;-81
2021/12/15 03:18:27;;;;;;;27.13;13.10;;;;;;;25.87;18.91;99238.13;5030456;28;20516;-80
2021/12/15 03:20:58;;;;;;;27.42;13.48;;;;;;;26.23;18.38;99240.56;5019936;28;20048;-80
2021/12/15 03:23:35;;;;;;;29.08;12.60;;;;;;;26.51;18.40;99243.78;5025369;28;20104;-80
2021/12/15 03:26:02;;;;;;;26.92;12.30;;;;;;;26.64;17.90;99238.38;5020835;28;20397;-80
2021/12/15 03:37:06;;;;;;;21.13;11.70;;;;;;;26.80;18.04;99241.41;5032397;28;20037;-81
2021/12/15 03:39:42;;;;;;;21.85;11.50;;;;;;;26.73;17.65;99241.47;5028573;28;20033;-81
2021/12/15 03:42:10;;;;;;;22.05;11.57;;;;;;;25.49;18.31;99246.94;5032040;28;20048;-80
2021/12/15 03:44:40;;;;;;;25.67;13.10;;;;;;;24.96;19.61;99250.16;5029412;28;20539;-81
2021/12/15 03:47:12;;;;;;;24.23;12.25;;;;;;;25.41;19.00;99249.78;5029266;28;20092;-81
2021/12/15 03:49:38;;;;;;;23.08;11.65;;;;;;;25.39;18.91;99248.63;5028602;28;20030;-81
2021/12/15 03:52:07;;;;;;;20.73;10.00;;;;;;;25.49;19.01;99256.16;5027629;28;20029;-81
2021/12/15 03:54:33;;;;;;;21.10;11.48;;;;;;;25.83;18.83;99251.44;5029635;28;20049;-81
2021/12/15 03:56:59;;;;;;;25.55;12.35;;;;;;;25.90;18.44;99256.19;5025508;28;20088;-81
2021/12/15 03:59:27;;;;;;;23.05;11.10;;;;;;;26.37;18.17;99249.59;5024955;28;20057;-81
2021/12/15 04:01:54;;;;;;;19.73;9.85;;;;;;;26.66;17.90;99252.84;5024969;28;20474;-81
2021/12/15 04:04:20;;;;;;;27.23;12.75;;;;;;;26.49;18.19;99265.94;5028012;28;20033;-81
2021/12/15 04:06:47;;;;;;;22.42;10.60;;;;;;;26.58;18.18;99254.94;5031323;28;20056;-81
2021/12/15 04:09:14;;;;;;;26.27;11.57;;;;;;;26.13;18.28;99264.78;5027491;28;20026;-81
2021/12/15 04:11:41;;;;;;;23.17;10.35;;;;;;;25.65;18.35;99264.09;5028315;28;20488;-80
2021/12/15 04:14:11;;;;;;;22.65;9.93;;;;;;;25.58;18.38;99266.97;5029113;28;20500;-80
2021/12/15 04:16:45;;;;;;;21.77;11.70;;;;;;;25.20;18.65;99268.84;5030843;28;20100;-81
2021/12/15 04:19:20;;;;;;;19.25;9.52;;;;;;;24.68;19.61;99276.38;5022341;28;20088;-80
2021/12/15 04:21:47;;;;;;;23.60;11.98;;;;;;;24.63;19.95;99266.38;5021863;28;20079;-81
2021/12/15 04:24:16;;;;;;;19.65;10.13;;;;;;;25.31;19.21;99266.75;5020236;28;20421;-81
2021/12/15 04:26:45;;;;;;;22.17;11.45;;;;;;;25.92;18.46;99265.81;5032875;28;20119;-80
2021/12/15 04:29:12;;;;;;;20.55;10.00;;;;;;;26.31;18.33;99259.75;5029858;28;20025;-80
2021/12/15 04:31:41;;;;;;;20.08;9.75;;;;;;;26.42;18.25;99268.84;5033148;28;20033;-81
2021/12/15 04:34:10;;;;;;;18.85;10.07;;;;;;;26.25;18.28;99264.25;5031991;28;20045;-80
2021/12/15 04:36:47;;;;;;;19.20;9.57;;;;;;;26.44;18.04;99274.84;5028682;28;20025;-81
2021/12/15 04:39:16;;;;;;;21.42;10.40;;;;;;;26.59;17.95;99262.19;5031847;28;20400;-81
2021/12/15 04:41:47;;;;;;;18.77;10.25;;;;;;;26.58;17.90;99268.25;5026156;28;20503;-81
2021/12/15 04:44:15;;;;;;;20.08;9.25;;;;;;;26.17;18.31;99279.63;5031903;28;20052;-81
2021/12/15 04:46:46;;;;;;;18.15;9.55;;;;;;;25.96;18.18;99279.81;5031784;28;20029;-81
2021/12/15 04:49:14;;;;;;;20.83;10.20;;;;;;;25.74;18.51;99292.53;5031326;28;20409;-81
2021/12/15 04:51:40;;;;;;;16.80;8.35;;;;;;;25.57;18.66;99290.66;5033602;28;20026;-81
2021/12/15 04:54:07;;;;;;;21.15;9.80;;;;;;;25.77;18.50;99295.28;5029687;28;20136;-81
2021/12/15 04:56:33;;;;;;;20.75;10.48;;;;;;;26.11;18.39;99301.03;5026899;28;20034;-80
2021/12/15 04:59:00;;;;;;;24.65;11.45;;;;;;;26.01;18.49;99294.25;5034762;28;20397;-80
2021/12/15 05:01:27;;;;;;;19.75;10.30;;;;;;;26.05;18.21;99300.63;5024053;28;20086;-80
2021/12/15 05:03:54;;;;;;;23.33;11.48;;;;;;;26.19;18.22;99302.53;5023523;28;20413;-81
2021/12/15 05:06:21;;;;;;;21.35;10.75;;;;;;;26.33;17.93;99299.53;5023893;28;20497;-81
2021/12/15 05:08:47;;;;;;;23.92;12.27;;;;;;;26.41;18.06;99298.25;5034417;28;20063;-81
2021/12/15 05:11:13;;;;;;;21.08;10.93;;;;;;;26.61;17.95;99306.84;5021073;28;20533;-80
2021/12/15 05:13:39;;;;;;;19.45;10.48;;;;;;;26.74;17.79;99310.72;5032695;28;20459;-81
2021/12/15 05:16:06;;;;;;;27.75;12.13;;;;;;;26.55;17.95;99312.16;5025238;28;20030;-81
2021/12/15 05:18:34;;;;;;;28.10;12.60;;;;;;;26.61;17.79;99301.19;5032422;28;20053;-81
2021/12/15 05:21:01;;;;;;;27.25;13.48;;;;;;;26.59;17.98;99303.66;5033038;28;20033;-81
2021/12/15 05:23:30;;;;;;;31.27;13.25;;;;;;;26.58;17.79;99308.47;5027298;28;20161;-81
2021/12/15 05:25:58;;;;;;;34.38;14.63;;;;;;;26.57;17.96;99303.28;5023563;28;20038;-81
2021/12/15 05:28:26;;;;;;;31.20;14.77;;;;;;;26.43;18.08;99309.09;5014533;28;20042;-80
2021/12/15 05:30:53;;;;;;;32.05;13.68;;;;;;;26.39;18.08;99306.31;5017584;28;20033;-80
2021/12/15 05:33:19;;;;;;;31.17;15.20;;;;;;;26.15;18.25;99309.41;5022022;28;20030;-81
2021/12/15 05:35:45;;;;;;;29.30;14.98;;;;;;;26.16;18.22;99314.63;5020299;28;20036;-80
2021/12/15 05:38:12;;;;;;;51.22;22.75;;;;;;;26.00;18.48;99300.28;5021665;28;20072;-80
2021/12/15 05:40:38;;;;;;;40.83;19.38;;;;;;;25.75;18.40;99311.78;5028547;28;20104;-80
2021/12/15 05:43:06;;;;;;;35.47;15.45;;;;;;;25.15;19.04;99309.44;5019052;28;20036;-81
2021/12/15 05:45:35;;;;;;;31.80;15.82;;;;;;;25.23;19.32;99310.97;5025631;28;20052;-83
2021/12/15 05:48:02;;;;;;;34.10;15.48;;;;;;;25.10;19.37;99306.25;5025073;28;20072;-80
2021/12/15 05:50:30;;;;;;;39.63;17.90;;;;;;;24.85;19.78;99298.00;5032946;28;20022;-80
2021/12/15 05:52:57;;;;;;;36.50;18.77;;;;;;;24.77;20.04;99304.03;5031852;28;20120;-81
2021/12/15 05:55:24;;;;;;;34.33;17.80;;;;;;;24.40;20.15;99319.44;5032054;28;20076;-80
2021/12/15 05:57:50;;;;;;;40.50;19.45;;;;;;;24.11;20.55;99311.50;5032594;28;20417;-80
2021/12/15 06:00:29;;;;;;;36.47;18.58;;;;;;;24.27;20.66;99314.66;5032348;28;20030;-80
2021/12/15 06:02:57;;;;;;;38.13;18.30;;;;;;;24.21;20.73;99316.28;5021659;28;20040;-80
2021/12/15 06:05:24;;;;;;;43.72;22.20;;;;;;;24.22;20.67;99320.69;5033098;28;20116;-81
2021/12/15 06:07:51;;;;;;;47.65;24.15;;;;;;;24.19;20.48;99321.50;5031448;28;20034;-80
2021/12/15 06:10:22;;;;;;;45.78;21.35;;;;;;;23.91;21.01;99325.13;5030425;28;20159;-80
2021/12/15 06:12:50;;;;;;;41.75;20.52;;;;;;;23.93;21.08;99323.53;5033633;28;20132;-80
2021/12/15 06:15:23;;;;;;;37.33;19.77;;;;;;;23.66;21.31;99325.16;5032186;28;20029;-80
2021/12/15 06:17:51;;;;;;;54.05;24.20;;;;;;;23.14;21.95;99320.28;5030728;28;20040;-80
2021/12/15 06:20:18;;;;;;;43.92;22.55;;;;;;;22.78;22.61;99324.22;5031059;28;20104;-80
2021/12/15 06:22:45;;;;;;;42.03;22.52;;;;;;;22.90;22.33;99340.63;5032925;28;20065;-80
2021/12/15 06:25:12;;;;;;;47.95;23.60;;;;;;;23.36;21.87;99339.56;5029373;28;20034;-79
2021/12/15 06:27:40;;;;;;;48.40;24.63;;;;;;;23.72;21.16;99337.56;5031429;28;20034;-80
2021/12/15 06:30:08;;;;;;;44.83;22.35;;;;;;;23.86;21.19;99331.16;5015056;28;20017;-80
2021/12/15 06:32:34;;;;;;;49.15;23.92;;;;;;;24.14;20.60;99336.75;5028985;28;20554;-81
2021/12/15 06:35:01;;;;;;;45.78;23.40;;;;;;;24.58;20.37;99341.81;5025662;28;20052;-81
2021/12/15 06:37:27;;;;;;;47.08;22.55;;;;;;;24.73;20.02;99335.75;5024122;28;20545;-81
2021/12/15 06:39:54;;;;;;;44.25;22.13;;;;;;;24.84;19.89;99340.53;5033960;28;20489;-80
2021/12/15 06:42:20;;;;;;;48.97;23.13;;;;;;;24.33;20.67;99343.91;5032466;28;20034;-81
2021/12/15 06:44:47;;;;;;;42.38;22.48;;;;;;;24.25;20.71;99353.56;5013606;28;20528;-81
2021/12/15 07:00:42;;;;;;;40.10;19.67;;;;;;;24.85;20.23;99359.81;5033282;28;20051;-80
2021/12/15 07:03:08;;;;;;;42.03;20.17;;;;;;;24.25;21.17;99362.00;5032396;28;20503;-81
2021/12/15 07:05:35;;;;;;;39.90;19.35;;;;;;;24.43;20.85;99359.94;5019122;28;20042;-81
2021/12/15 07:08:03;;;;;;;35.85;18.05;;;;;;;24.98;20.44;99371.34;5024028;28;20441;-80
2021/12/15 07:10:32;;;;;;;34.97;16.30;;;;;;;25.39;19.81;99369.53;5014494;28;20033;-81
2021/12/15 07:13:00;;;;;;;39.47;19.33;;;;;;;25.34;19.86;99373.53;5023212;28;20044;-81
2021/12/15 07:15:27;;;;;;;43.95;18.67;;;;;;;25.28;19.96;99383.63;5029444;28;20035;-81
2021/12/15 07:18:01;;;;;;;32.05;16.17;;;;;;;25.44;19.94;99374.72;5030989;28;20048;-81
2021/12/15 07:20:37;;;;;;;41.25;19.92;;;;;;;25.64;19.33;99366.53;5032805;28;20034;-80
2021/12/15 07:23:06;;;;;;;36.70;18.35;;;;;;;25.81;19.54;99377.63;5031926;28;20132;-81
2021/12/15 07:25:33;;;;;;;33.38;16.80;;;;;;;26.03;19.26;99367.00;5030827;28;20485;-81
2021/12/15 07:27:59;;;;;;;38.30;20.30;;;;;;;25.24;19.84;99376.44;5032288;28;20450;-81
2021/12/15 07:30:26;;;;;;;34.17;19.42;;;;;;;25.06;20.40;99373.75;5032661;28;20099;-81
2021/12/15 07:32:53;;;;;;;42.72;20.02;;;;;;;25.25;20.04;99375.25;5033507;28;20389;-81
2021/12/15 07:35:21;;;;;;;38.15;19.90;;;;;;;25.19;20.39;99386.09;5030383;28;20039;-81
2021/12/15 07:37:48;;;;;;;48.33;21.70;;;;;;;25.10;20.26;99387.75;5032580;28;20037;-81
2021/12/15 07:40:19;;;;;;;39.15;18.98;;;;;;;25.45;20.04;99393.19;5031971;28;20448;-81
2021/12/15 07:43:04;;;;;;;40.88;20.17;;;;;;;25.36;20.14;99390.81;5028081;28;20080;-81
2021/12/15 07:45:34;;;;;;;44.15;20.70;;;;;;;25.54;19.87;99392.72;5016831;28;20108;-81
2021/12/15 07:48:03;;;;;;;43.05;20.85;;;;;;;25.60;20.04;99399.53;5029855;28;20033;-81
2021/12/15 07:50:30;;;;;;;38.85;19.77;;;;;;;25.99;19.64;99403.63;5027935;28;20096;-81
2021/12/15 07:52:57;;;;;;;40.78;19.70;;;;;;;26.30;19.18;99410.19;5031815;28;20038;-81
2021/12/15 07:55:25;;;;;;;41.55;21.48;;;;;;;25.70;19.92;99412.69;5033242;28;20037;-81
2021/12/15 07:57:52;;;;;;;43.53;22.77;;;;;;;24.92;20.63;99427.19;5035458;28;20033;-81
2021/12/15 08:00:20;;;;;;;39.60;20.10;;;;;;;25.33;20.39;99414.13;5029044;28;20508;-81
2021/12/15 08:02:47;;;;;;;36.03;19.33;;;;;;;25.86;20.15;99429.84;5035222;28;20479;-81
2021/12/15 08:05:14;;;;;;;46.95;23.10;;;;;;;26.03;19.61;99426.09;5036126;28;20064;-81
2021/12/15 08:07:41;;;;;;;45.88;21.80;;;;;;;26.20;19.63;99428.00;5036930;28;20033;-81
2021/12/15 08:10:11;;;;;;;47.60;22.60;;;;;;;26.44;19.41;99438.22;5036060;28;20057;-81
2021/12/15 08:12:38;;;;;;;37.35;17.23;;;;;;;26.68;19.13;99442.00;5036111;28;20087;-81
2021/12/15 08:15:07;;;;;;;41.75;20.92;;;;;;;26.59;19.18;99436.06;5033739;28;20473;-81
2021/12/15 08:17:35;;;;;;;36.47;18.25;;;;;;;26.61;19.09;99436.44;5027214;28;20037;-81
2021/12/15 08:20:03;;;;;;;36.53;19.40;;;;;;;26.67;19.07;99443.22;5036661;28;20082;-81
2021/12/15 08:22:29;;;;;;;35.63;18.02;;;;;;;26.51;19.23;99448.63;5035726;28;20516;-82
2021/12/15 08:24:56;;;;;;;35.22;17.90;;;;;;;26.64;19.26;99444.88;5036641;28;20040;-81
2021/12/15 08:27:22;;;;;;;37.30;19.25;;;;;;;26.84;18.81;99445.06;5027983;28;20556;-81
2021/12/15 08:29:48;;;;;;;30.40;16.58;;;;;;;26.93;19.00;99447.41;5036506;28;20021;-81
2021/12/15 08:32:14;;;;;;;35.65;19.48;;;;;;;26.35;19.70;99443.53;5035664;28;20033;-81
2021/12/15 08:34:41;;;;;;;40.15;20.83;;;;;;;25.66;20.14;99449.31;5022238;28;20547;-81
2021/12/15 08:37:13;;;;;;;42.40;21.23;;;;;;;25.59;20.34;99454.19;5018477;28;20119;-81
2021/12/15 08:39:43;;;;;;;49.25;24.70;;;;;;;25.22;20.87;99444.31;5036575;28;20482;-81
2021/12/15 08:42:10;;;;;;;43.65;21.65;;;;;;;24.95;21.16;99450.88;5034672;28;20044;-81
2021/12/15 08:44:37;;;;;;;39.45;20.40;;;;;;;25.25;21.18;99443.47;5032214;28;20042;-81
2021/12/15 08:47:05;;;;;;;41.40;22.60;;;;;;;24.75;21.48;99444.88;5035474;28;20032;-81
2021/12/15 08:49:32;;;;;;;37.17;19.63;;;;;;;24.68;21.69;99440.09;5035393;28;20030;-81
2021/12/15 08:51:58;;;;;;;41.95;21.20;;;;;;;24.97;21.30;99449.22;5026987;28;20477;-82
2021/12/15 08:54:24;;;;;;;41.33;20.95;;;;;;;24.74;21.69;99446.88;5034344;28;20049;-82
2021/12/15 08:56:52;;;;;;;36.03;19.33;;;;;;;24.93;21.77;99445.63;5034320;28;20029;-82
2021/12/15 08:59:19;;;;;;;38.00;20.27;;;;;;;25.07;21.30;99451.19;5036041;28;20034;-82
2021/12/15 09:01:46;;;;;;;36.13;18.75;;;;;;;25.17;21.18;99460.81;5033567;28;20046;-82
2021/12/15 09:04:14;;;;;;;39.92;21.08;;;;;;;25.69;20.79;99453.31;5032089;28;20037;-82
2021/12/15 09:06:43;;;;;;;35.30;17.70;;;;;;;25.67;20.83;99453.72;5035152;28;20041;-82
2021/12/15 09:09:12;;;;;;;41.55;21.25;;;;;;;25.75;20.57;99446.84;5026125;28;20025;-82
2021/12/15 09:11:38;;;;;;;40.50;20.67;;;;;;;25.81;20.86;99453.59;5033855;28;20033;-82
2021/12/15 09:14:06;;;;;;;37.53;19.67;;;;;;;25.64;20.79;99439.69;5016274;28;20112;-82
2021/12/15 09:16:34;;;;;;;36.17;18.92;;;;;;;25.29;21.09;99463.16;5027691;28;20030;-82
2021/12/15 09:19:01;;;;;;;32.47;17.65;;;;;;;25.31;21.13;99453.09;5035659;28;20532;-83
2021/12/15 09:21:30;;;;;;;34.00;18.63;;;;;;;25.90;20.84;99444.72;5034266;28;20030;-82
2021/12/15 09:23:57;;;;;;;35.42;18.27;;;;;;;26.37;20.29;99446.72;5034815;28;20077;-82
2021/12/15 09:26:24;;;;;;;33.55;16.17;;;;;;;26.84;19.54;99449.91;5026398;28;20025;-82
2021/12/15 09:28:50;;;;;;;30.23;14.95;;;;;;;27.18;19.22;99450.69;5030329;28;20055;-82
2021/12/15 09:31:17;;;;;;;35.92;19.05;;;;;;;25.91;20.13;99452.75;5034690;28;20030;-83
2021/12/15 09:33:49;;;;;;;34.13;16.05;;;;;;;26.01;20.27;99445.44;5034834;28;20063;-83
2021/12/15 09:36:18;;;;;;;28.75;15.48;;;;;;;26.02;20.61;99435.78;5033389;28;20057;-83
2021/12/15 09:38:47;;;;;;;30.25;15.13;;;;;;;26.16;20.03;99435.69;5035170;28;20038;-82
2021/12/15 09:41:15;;;;;;;28.23;15.70;;;;;;;26.01;20.37;99446.25;5030616;28;21040;-82
2021/12/15 09:43:43;;;;;;;30.52;16.67;;;;;;;26.05;20.22;99438.56;5030208;28;20065;-82
2021/12/15 10:02:48;;;;;;;32.78;17.27;;;;;;;23.83;23.09;99430.91;5034569;28;20504;-83
2021/12/15 10:19:25;;;;;;;30.17;15.40;;;;;;;23.22;24.11;99439.59;5034674;28;20036;-82
2021/12/15 10:22:06;;;;;;;28.23;14.73;;;;;;;24.03;23.01;99437.75;5032907;28;20038;-82
2021/12/15 10:24:47;;;;;;;23.73;13.20;;;;;;;24.46;22.51;99444.13;5033146;28;20091;-82
2021/12/15 10:27:39;;;;;;;28.05;15.13;;;;;;;25.23;21.36;99443.09;5033186;28;20042;-82
2021/12/15 10:30:11;;;;;;;24.13;11.57;;;;;;;24.67;22.06;99441.28;5030887;28;20060;-82
2021/12/15 10:32:40;;;;;;;29.50;15.13;;;;;;;25.48;21.28;99439.38;5031900;28;20401;-82
2021/12/15 10:35:35;;;;;;;25.95;13.13;;;;;;;25.88;21.06;99428.22;5020881;28;20033;-83
2021/12/15 10:38:29;;;;;;;26.17;13.82;;;;;;;25.97;20.58;99427.78;5031871;28;20033;-82
2021/12/15 10:41:07;;;;;;;25.55;14.15;;;;;;;26.27;20.35;99427.13;5032855;28;20030;-82
2021/12/15 10:43:52;;;;;;;26.02;13.60;;;;;;;26.12;20.69;99428.47;5034036;28;20037;-83
2021/12/15 10:46:24;;;;;;;26.63;14.68;;;;;;;25.78;21.02;99434.75;5030505;28;20129;-82
2021/12/15 10:48:56;;;;;;;25.55;14.57;;;;;;;26.05;20.50;99427.28;5025666;28;20036;-82
2021/12/15 10:51:49;;;;;;;25.80;13.20;;;;;;;26.25;20.51;99430.38;5028625;28;20041;-83
2021/12/15 10:54:18;;;;;;;24.48;13.38;;;;;;;25.87;20.80;99420.22;5032489;28;21023;-82
2021/12/15 10:56:56;;;;;;;28.33;14.80;;;;;;;26.06;20.47;99416.84;5033859;28;20033;-83
2021/12/15 10:59:25;;;;;;;21.33;12.98;;;;;;;26.27;20.27;99415.88;5031623;28;20025;-82
2021/12/15 11:01:54;;;;;;;32.72;17.10;;;;;;;25.59;20.81;99412.78;5020076;28;20116;-83
2021/12/15 11:04:34;;;;;;;26.20;13.63;;;;;;;26.20;20.64;99405.47;5031475;28;20033;-82
2021/12/15 11:07:30;;;;;;;33.95;16.60;;;;;;;26.38;20.46;99405.28;5025786;28;20030;-82
2021/12/15 11:10:11;;;;;;;27.90;15.48;;;;;;;26.58;19.96;99397.84;5021500;28;20038;-82
2021/12/15 11:12:37;;;;;;;32.50;16.92;;;;;;;26.23;20.07;99387.75;5030398;28;20436;-82
2021/12/15 11:15:18;;;;;;;37.80;19.20;;;;;;;25.57;20.88;99392.72;5022142;28;20036;-82
2021/12/15 11:17:51;;;;;;;32.70;17.02;;;;;;;26.05;21.04;99398.34;5028350;28;20037;-82
2021/12/15 11:20:20;;;;;;;29.20;14.88;;;;;;;26.49;20.45;99395.50;5028460;28;20120;-83
2021/12/15 11:22:49;;;;;;;34.47;18.15;;;;;;;26.63;20.15;99394.56;5021533;28;20081;-83
2021/12/15 11:25:29;;;;;;;33.03;17.42;;;;;;;26.91;20.18;99390.66;5016179;28;20072;-83
2021/12/15 11:28:02;;;;;;;49.13;18.42;;;;;;;26.31;20.48;99389.28;5031144;28;20482;-83
2021/12/15 11:30:54;;;;;;;33.03;19.13;;;;;;;25.62;21.08;99386.66;5028018;28;20026;-83
2021/12/15 11:33:27;;;;;;;32.85;17.67;;;;;;;26.18;20.69;99384.59;5022343;28;20381;-83
2021/12/15 11:35:59;;;;;;;31.77;17.33;;;;;;;26.13;20.71;99382.22;5013484;28;20061;-83
2021/12/15 11:38:42;;;;;;;32.60;17.30;;;;;;;25.91;20.87;99382.38;5033430;28;20033;-83
2021/12/15 11:41:13;;;;;;;31.10;16.50;;;;;;;26.07;20.69;99374.19;5026471;28;20389;-83
2021/12/15 11:43:45;;;;;;;29.33;17.05;;;;;;;25.86;20.90;99374.38;5018987;28;20045;-83
2021/12/15 11:46:23;;;;;;;31.42;17.25;;;;;;;25.58;21.11;99371.03;5036343;28;20500;-83
2021/12/15 11:49:16;;;;;;;25.30;14.70;;;;;;;25.94;20.96;99369.50;5014435;28;20100;-83
2021/12/15 11:51:47;;;;;;;29.20;16.33;;;;;;;25.81;20.89;99366.38;5017589;28;20141;-83
2021/12/15 11:54:21;;;;;;;31.40;16.20;;;;;;;25.79;21.16;99354.75;5032789;28;20053;-83
2021/12/15 11:56:51;;;;;;;34.83;18.10;;;;;;;25.94;20.85;99358.25;5030971;28;20113;-83
2021/12/15 11:59:54;;;;;;;33.05;17.52;;;;;;;26.20;20.52;99357.63;5024797;28;20068;-83
2021/12/15 12:02:28;;;;;;;36.47;19.63;;;;;;;26.37;20.42;99356.63;5018694;28;20053;-83
2021/12/15 12:05:18;;;;;;;26.17;14.63;;;;;;;26.02;20.82;99365.41;5015701;28;20389;-82
2021/12/15 12:07:47;;;;;;;35.85;19.75;;;;;;;25.28;21.64;99371.59;5017809;28;20053;-83
2021/12/15 12:10:49;;;;;;;34.20;18.65;;;;;;;24.87;22.05;99371.41;5025592;28;20038;-83
2021/12/15 12:13:26;;;;;;;33.38;17.05;;;;;;;24.77;22.69;99377.06;5016994;28;20049;-83
2021/12/15 12:16:07;;;;;;;37.10;21.27;;;;;;;23.95;23.47;99368.81;5020953;28;20104;-83
2021/12/15 12:18:33;;;;;;;;;;;;;;;24.36;22.84;99374.78;5027437;28;20392;-83
2021/12/15 12:21:18;;;;;;;28.88;17.15;;;;;;;24.86;22.26;99372.63;5031931;28;19920;-83
2021/12/15 12:23:46;;;;;;;31.13;16.13;;;;;;;25.42;21.76;99366.66;5030990;28;20111;-83
2021/12/15 12:26:13;;;;;;;29.90;15.88;;;;;;;25.47;21.44;99373.09;5028508;28;20037;-83
2021/12/15 12:28:43;;;;;;;31.40;16.17;;;;;;;25.83;21.34;99380.06;5027197;28;20039;-83
2021/12/15 12:31:16;;;;;;;23.80;13.95;;;;;;;25.94;21.14;99375.94;5018314;28;20042;-83
2021/12/15 12:33:42;;;;;;;24.88;14.52;;;;;;;25.70;21.25;99381.75;5016463;28;20026;-83
2021/12/15 12:36:12;;;;;;;30.52;17.20;;;;;;;25.79;21.50;99379.31;5017072;28;20037;-83
2021/12/15 12:38:41;;;;;;;31.93;16.60;;;;;;;25.76;21.17;99371.69;5030727;28;20076;-83
2021/12/15 12:41:23;;;;;;;27.17;15.73;;;;;;;26.07;20.89;99370.56;5018916;28;20335;-82
2021/12/15 12:43:56;;;;;;;26.13;13.82;;;;;;;26.22;20.88;99374.09;5033380;28;20554;-83
2021/12/15 12:46:38;;;;;;;24.58;15.13;;;;;;;26.35;20.71;99375.94;5031713;28;20192;-82
2021/12/15 13:00:18;;;;;;;25.38;13.60;;;;;;;26.28;20.77;99366.81;5009850;28;20046;-83
2021/12/15 13:02:48;;;;;;;30.92;15.75;;;;;;;26.45;20.88;99362.97;5038749;28;20057;-82